Archival Weather

Snohomish County (Paine Fld)

Everett, Washington (KPAE)

Report from: Wednesday, November 15, 2023 10:53 AM PST
Current time: Friday, June 21, 2024 12:04 AM PDT

Current weather – Weather history – Daily summaries
Weather forecast

Temperature5.6°C (42.1°F)
Wind chill4.0°C (39.2°F)
Dew point1.1°C (34.0°F)
Winds 4 kts (2.1 m/s, 4.6 mph) South-Southeast (150°)
Visibility10 mi. (16.1 km)
Clouds Ceiling: Broken clouds 12,000 ft. (3,658 m)
Altimeter29.95 in.Hg (1014 mB)
Relative humidity73 %
Density altitude-1,088 ft. (-332 m)
Sea-level pressure101.5 kPa (1015 mB, 29.97 in.Hg)
Remarks Automated weather observing station with precipitation discriminator
Flight conditions Visual Meteorological Conditions
Raw dataKPAE 151853Z 15004KT 10SM BKN120 06/01 A2995 RMK AO2 SLP148 T00560011
An error has occurred. This application may no longer respond until reloaded. Reload 🗙